sensor_id;sensor_type;location;lat;lon;timestamp;P1;durP1;ratioP1;P2;durP2;ratioP2
42478;SDS011;28110;47.080;9.476;2023-12-20T00:00:16;9.10;;;4.83;;
42478;SDS011;28110;47.080;9.476;2023-12-20T00:02:42;8.93;;;5.28;;
42478;SDS011;28110;47.080;9.476;2023-12-20T00:05:11;10.27;;;5.20;;
42478;SDS011;28110;47.080;9.476;2023-12-20T00:07:40;11.90;;;5.35;;
42478;SDS011;28110;47.080;9.476;2023-12-20T00:10:06;10.93;;;5.00;;
42478;SDS011;28110;47.080;9.476;2023-12-20T00:12:32;11.43;;;5.07;;
42478;SDS011;28110;47.080;9.476;2023-12-20T00:14:57;12.00;;;5.13;;
42478;SDS011;28110;47.080;9.476;2023-12-20T00:17:23;9.40;;;4.93;;
42478;SDS011;28110;47.080;9.476;2023-12-20T00:19:48;8.30;;;5.07;;
42478;SDS011;28110;47.080;9.476;2023-12-20T00:22:14;8.77;;;4.80;;
42478;SDS011;28110;47.080;9.476;2023-12-20T00:24:40;9.30;;;4.97;;
42478;SDS011;28110;47.080;9.476;2023-12-20T00:27:05;10.77;;;5.60;;
42478;SDS011;28110;47.080;9.476;2023-12-20T00:29:31;11.35;;;4.95;;
42478;SDS011;28110;47.080;9.476;2023-12-20T00:31:56;8.77;;;4.40;;
42478;SDS011;28110;47.080;9.476;2023-12-20T00:34:22;8.20;;;4.90;;
42478;SDS011;28110;47.080;9.476;2023-12-20T00:36:47;10.32;;;4.50;;
42478;SDS011;28110;47.080;9.476;2023-12-20T00:39:13;8.63;;;4.50;;
42478;SDS011;28110;47.080;9.476;2023-12-20T00:41:39;10.37;;;4.73;;
42478;SDS011;28110;47.080;9.476;2023-12-20T00:44:05;9.57;;;4.75;;
42478;SDS011;28110;47.080;9.476;2023-12-20T00:46:30;9.37;;;4.70;;
42478;SDS011;28110;47.080;9.476;2023-12-20T00:48:56;10.95;;;5.32;;
42478;SDS011;28110;47.080;9.476;2023-12-20T00:51:22;9.57;;;4.73;;
42478;SDS011;28110;47.080;9.476;2023-12-20T00:53:49;8.93;;;4.68;;
42478;SDS011;28110;47.080;9.476;2023-12-20T00:56:15;10.70;;;5.23;;
42478;SDS011;28110;47.080;9.476;2023-12-20T00:58:40;11.60;;;5.40;;
42478;SDS011;28110;47.080;9.476;2023-12-20T01:01:06;9.90;;;5.60;;
42478;SDS011;28110;47.080;9.476;2023-12-20T01:03:31;9.88;;;4.70;;
42478;SDS011;28110;47.080;9.476;2023-12-20T01:05:57;9.60;;;4.57;;
42478;SDS011;28110;47.080;9.476;2023-12-20T01:08:22;9.47;;;5.50;;
42478;SDS011;28110;47.080;9.476;2023-12-20T01:10:48;8.97;;;4.67;;
42478;SDS011;28110;47.080;9.476;2023-12-20T01:13:14;10.63;;;5.47;;
42478;SDS011;28110;47.080;9.476;2023-12-20T01:15:39;11.00;;;5.30;;
42478;SDS011;28110;47.080;9.476;2023-12-20T01:18:05;9.70;;;5.07;;
42478;SDS011;28110;47.080;9.476;2023-12-20T01:20:30;12.15;;;5.13;;
42478;SDS011;28110;47.080;9.476;2023-12-20T01:22:56;8.97;;;5.17;;
42478;SDS011;28110;47.080;9.476;2023-12-20T01:25:21;11.85;;;5.53;;
42478;SDS011;28110;47.080;9.476;2023-12-20T01:27:47;11.68;;;5.57;;
42478;SDS011;28110;47.080;9.476;2023-12-20T01:30:12;10.60;;;5.47;;
42478;SDS011;28110;47.080;9.476;2023-12-20T01:32:38;8.32;;;5.13;;
42478;SDS011;28110;47.080;9.476;2023-12-20T01:35:04;11.10;;;5.17;;
42478;SDS011;28110;47.080;9.476;2023-12-20T01:37:30;8.25;;;4.68;;
42478;SDS011;28110;47.080;9.476;2023-12-20T01:39:55;10.60;;;4.67;;
42478;SDS011;28110;47.080;9.476;2023-12-20T01:42:21;12.37;;;5.67;;
42478;SDS011;28110;47.080;9.476;2023-12-20T01:44:47;8.60;;;4.90;;
42478;SDS011;28110;47.080;9.476;2023-12-20T01:47:13;11.25;;;5.45;;
42478;SDS011;28110;47.080;9.476;2023-12-20T01:49:38;9.20;;;4.97;;
42478;SDS011;28110;47.080;9.476;2023-12-20T01:52:04;9.10;;;5.07;;
42478;SDS011;28110;47.080;9.476;2023-12-20T01:54:31;8.02;;;5.05;;
42478;SDS011;28110;47.080;9.476;2023-12-20T01:56:56;9.07;;;4.97;;
42478;SDS011;28110;47.080;9.476;2023-12-20T01:59:22;9.93;;;5.00;;
42478;SDS011;28110;47.080;9.476;2023-12-20T02:01:48;9.65;;;5.20;;
42478;SDS011;28110;47.080;9.476;2023-12-20T02:04:13;9.37;;;5.17;;
42478;SDS011;28110;47.080;9.476;2023-12-20T02:06:40;8.63;;;4.70;;
42478;SDS011;28110;47.080;9.476;2023-12-20T02:09:05;9.38;;;4.72;;
42478;SDS011;28110;47.080;9.476;2023-12-20T02:11:32;8.88;;;4.93;;
42478;SDS011;28110;47.080;9.476;2023-12-20T02:13:58;10.13;;;4.50;;
42478;SDS011;28110;47.080;9.476;2023-12-20T02:16:24;10.80;;;4.90;;
42478;SDS011;28110;47.080;9.476;2023-12-20T02:18:49;9.43;;;5.22;;
42478;SDS011;28110;47.080;9.476;2023-12-20T02:21:15;10.70;;;5.03;;
42478;SDS011;28110;47.080;9.476;2023-12-20T02:23:40;11.95;;;5.25;;
42478;SDS011;28110;47.080;9.476;2023-12-20T02:26:06;9.80;;;5.80;;
42478;SDS011;28110;47.080;9.476;2023-12-20T02:28:32;9.32;;;5.53;;
42478;SDS011;28110;47.080;9.476;2023-12-20T02:30:58;8.27;;;4.77;;
42478;SDS011;28110;47.080;9.476;2023-12-20T02:33:24;11.18;;;5.28;;
42478;SDS011;28110;47.080;9.476;2023-12-20T02:35:49;11.10;;;5.57;;
42478;SDS011;28110;47.080;9.476;2023-12-20T02:38:15;13.37;;;5.60;;
42478;SDS011;28110;47.080;9.476;2023-12-20T02:40:40;10.65;;;5.30;;
42478;SDS011;28110;47.080;9.476;2023-12-20T02:43:06;11.00;;;5.30;;
42478;SDS011;28110;47.080;9.476;2023-12-20T02:45:31;9.87;;;5.40;;
42478;SDS011;28110;47.080;9.476;2023-12-20T02:47:57;10.25;;;5.22;;
42478;SDS011;28110;47.080;9.476;2023-12-20T02:50:23;9.90;;;5.30;;
42478;SDS011;28110;47.080;9.476;2023-12-20T02:52:48;8.07;;;4.97;;
42478;SDS011;28110;47.080;9.476;2023-12-20T02:55:14;7.85;;;4.85;;
42478;SDS011;28110;47.080;9.476;2023-12-20T02:57:39;10.90;;;5.70;;
42478;SDS011;28110;47.080;9.476;2023-12-20T03:00:08;10.20;;;5.15;;
42478;SDS011;28110;47.080;9.476;2023-12-20T03:02:34;8.60;;;5.28;;
42478;SDS011;28110;47.080;9.476;2023-12-20T03:05:00;9.33;;;5.17;;
42478;SDS011;28110;47.080;9.476;2023-12-20T03:07:26;9.38;;;5.30;;
42478;SDS011;28110;47.080;9.476;2023-12-20T03:09:52;8.80;;;5.10;;
42478;SDS011;28110;47.080;9.476;2023-12-20T03:12:17;10.45;;;5.07;;
42478;SDS011;28110;47.080;9.476;2023-12-20T03:14:43;10.07;;;5.43;;
42478;SDS011;28110;47.080;9.476;2023-12-20T03:17:09;8.85;;;5.20;;
42478;SDS011;28110;47.080;9.476;2023-12-20T03:19:35;8.47;;;5.17;;
42478;SDS011;28110;47.080;9.476;2023-12-20T03:22:00;10.53;;;4.67;;
42478;SDS011;28110;47.080;9.476;2023-12-20T03:24:26;9.38;;;5.30;;
42478;SDS011;28110;47.080;9.476;2023-12-20T03:26:52;9.00;;;4.83;;
42478;SDS011;28110;47.080;9.476;2023-12-20T03:29:17;7.45;;;5.13;;
42478;SDS011;28110;47.080;9.476;2023-12-20T03:31:43;9.13;;;4.93;;
42478;SDS011;28110;47.080;9.476;2023-12-20T03:34:08;9.47;;;5.27;;
42478;SDS011;28110;47.080;9.476;2023-12-20T03:36:34;14.43;;;5.30;;
42478;SDS011;28110;47.080;9.476;2023-12-20T03:38:59;8.37;;;4.53;;
42478;SDS011;28110;47.080;9.476;2023-12-20T03:41:25;9.90;;;4.93;;
42478;SDS011;28110;47.080;9.476;2023-12-20T03:43:50;10.00;;;5.50;;
42478;SDS011;28110;47.080;9.476;2023-12-20T03:46:16;10.30;;;5.28;;
42478;SDS011;28110;47.080;9.476;2023-12-20T03:48:42;9.98;;;4.80;;
42478;SDS011;28110;47.080;9.476;2023-12-20T03:51:08;10.00;;;5.13;;
42478;SDS011;28110;47.080;9.476;2023-12-20T03:53:33;10.70;;;5.40;;
42478;SDS011;28110;47.080;9.476;2023-12-20T03:55:59;8.80;;;5.50;;
42478;SDS011;28110;47.080;9.476;2023-12-20T03:58:24;12.18;;;6.15;;
42478;SDS011;28110;47.080;9.476;2023-12-20T04:00:50;10.60;;;5.63;;
42478;SDS011;28110;47.080;9.476;2023-12-20T04:03:15;11.50;;;5.77;;
42478;SDS011;28110;47.080;9.476;2023-12-20T04:05:41;11.02;;;5.78;;
42478;SDS011;28110;47.080;9.476;2023-12-20T04:08:07;9.37;;;5.30;;
42478;SDS011;28110;47.080;9.476;2023-12-20T04:10:32;11.88;;;5.63;;
42478;SDS011;28110;47.080;9.476;2023-12-20T04:12:58;11.73;;;5.50;;
42478;SDS011;28110;47.080;9.476;2023-12-20T04:15:23;8.57;;;5.43;;
42478;SDS011;28110;47.080;9.476;2023-12-20T04:17:49;8.23;;;4.97;;
42478;SDS011;28110;47.080;9.476;2023-12-20T04:20:15;9.50;;;5.40;;
42478;SDS011;28110;47.080;9.476;2023-12-20T04:22:40;9.27;;;4.95;;
42478;SDS011;28110;47.080;9.476;2023-12-20T04:25:07;8.57;;;5.30;;
42478;SDS011;28110;47.080;9.476;2023-12-20T04:27:33;9.48;;;5.43;;
42478;SDS011;28110;47.080;9.476;2023-12-20T04:29:58;9.87;;;5.73;;
42478;SDS011;28110;47.080;9.476;2023-12-20T04:32:24;8.93;;;5.25;;
42478;SDS011;28110;47.080;9.476;2023-12-20T04:34:49;12.13;;;5.93;;
42478;SDS011;28110;47.080;9.476;2023-12-20T04:37:15;10.77;;;5.63;;
42478;SDS011;28110;47.080;9.476;2023-12-20T04:39:40;8.90;;;5.53;;
42478;SDS011;28110;47.080;9.476;2023-12-20T04:42:06;8.93;;;5.03;;
42478;SDS011;28110;47.080;9.476;2023-12-20T04:44:32;11.02;;;5.63;;
42478;SDS011;28110;47.080;9.476;2023-12-20T04:46:57;9.60;;;5.83;;
42478;SDS011;28110;47.080;9.476;2023-12-20T04:49:23;10.80;;;5.80;;
42478;SDS011;28110;47.080;9.476;2023-12-20T04:51:48;13.17;;;6.60;;
42478;SDS011;28110;47.080;9.476;2023-12-20T04:54:14;13.07;;;6.57;;
42478;SDS011;28110;47.080;9.476;2023-12-20T04:56:39;13.00;;;6.10;;
42478;SDS011;28110;47.080;9.476;2023-12-20T04:59:05;10.10;;;5.83;;
42478;SDS011;28110;47.080;9.476;2023-12-20T05:01:30;11.02;;;5.65;;
42478;SDS011;28110;47.080;9.476;2023-12-20T05:03:56;10.43;;;5.53;;
42478;SDS011;28110;47.080;9.476;2023-12-20T05:06:21;10.67;;;5.93;;
42478;SDS011;28110;47.080;9.476;2023-12-20T05:08:47;12.65;;;5.95;;
42478;SDS011;28110;47.080;9.476;2023-12-20T05:11:12;14.53;;;6.53;;
42478;SDS011;28110;47.080;9.476;2023-12-20T05:13:40;8.75;;;5.50;;
42478;SDS011;28110;47.080;9.476;2023-12-20T05:16:05;9.30;;;5.57;;
42478;SDS011;28110;47.080;9.476;2023-12-20T05:18:31;10.57;;;5.75;;
42478;SDS011;28110;47.080;9.476;2023-12-20T05:20:56;9.18;;;6.03;;
42478;SDS011;28110;47.080;9.476;2023-12-20T05:23:22;13.23;;;6.33;;
42478;SDS011;28110;47.080;9.476;2023-12-20T05:25:48;11.07;;;5.63;;
42478;SDS011;28110;47.080;9.476;2023-12-20T05:28:14;9.53;;;5.80;;
42478;SDS011;28110;47.080;9.476;2023-12-20T05:30:40;11.27;;;5.78;;
42478;SDS011;28110;47.080;9.476;2023-12-20T05:33:05;9.23;;;5.53;;
42478;SDS011;28110;47.080;9.476;2023-12-20T05:35:31;9.57;;;5.93;;
42478;SDS011;28110;47.080;9.476;2023-12-20T05:37:56;11.73;;;5.60;;
42478;SDS011;28110;47.080;9.476;2023-12-20T05:40:22;10.83;;;5.57;;
42478;SDS011;28110;47.080;9.476;2023-12-20T05:42:47;10.48;;;5.43;;
42478;SDS011;28110;47.080;9.476;2023-12-20T05:45:14;9.23;;;4.60;;
42478;SDS011;28110;47.080;9.476;2023-12-20T05:47:40;10.32;;;5.40;;
42478;SDS011;28110;47.080;9.476;2023-12-20T05:50:05;9.20;;;5.60;;
42478;SDS011;28110;47.080;9.476;2023-12-20T05:52:31;10.15;;;5.50;;
42478;SDS011;28110;47.080;9.476;2023-12-20T05:54:57;10.63;;;5.93;;
42478;SDS011;28110;47.080;9.476;2023-12-20T05:57:26;12.75;;;5.63;;
42478;SDS011;28110;47.080;9.476;2023-12-20T05:59:51;10.05;;;6.22;;
42478;SDS011;28110;47.080;9.476;2023-12-20T06:02:17;11.13;;;5.87;;
42478;SDS011;28110;47.080;9.476;2023-12-20T06:04:43;10.27;;;5.50;;
42478;SDS011;28110;47.080;9.476;2023-12-20T06:07:11;10.02;;;5.57;;
42478;SDS011;28110;47.080;9.476;2023-12-20T06:09:37;8.77;;;5.40;;
42478;SDS011;28110;47.080;9.476;2023-12-20T06:12:03;10.50;;;5.53;;
42478;SDS011;28110;47.080;9.476;2023-12-20T06:14:28;9.57;;;5.18;;
42478;SDS011;28110;47.080;9.476;2023-12-20T06:16:55;10.68;;;5.15;;
42478;SDS011;28110;47.080;9.476;2023-12-20T06:19:21;9.73;;;5.87;;
42478;SDS011;28110;47.080;9.476;2023-12-20T06:21:47;8.40;;;5.00;;
42478;SDS011;28110;47.080;9.476;2023-12-20T06:24:12;10.80;;;5.73;;
42478;SDS011;28110;47.080;9.476;2023-12-20T06:26:38;11.20;;;6.17;;
42478;SDS011;28110;47.080;9.476;2023-12-20T06:29:03;10.57;;;5.68;;
42478;SDS011;28110;47.080;9.476;2023-12-20T06:31:29;11.13;;;5.47;;
42478;SDS011;28110;47.080;9.476;2023-12-20T06:33:55;7.97;;;5.20;;
42478;SDS011;28110;47.080;9.476;2023-12-20T06:36:23;8.27;;;5.13;;
42478;SDS011;28110;47.080;9.476;2023-12-20T06:38:49;10.60;;;5.72;;
42478;SDS011;28110;47.080;9.476;2023-12-20T06:41:15;9.57;;;5.85;;
42478;SDS011;28110;47.080;9.476;2023-12-20T06:43:41;8.65;;;5.47;;
42478;SDS011;28110;47.080;9.476;2023-12-20T06:46:07;10.07;;;6.10;;
42478;SDS011;28110;47.080;9.476;2023-12-20T06:48:33;11.15;;;6.65;;
42478;SDS011;28110;47.080;9.476;2023-12-20T06:51:00;14.43;;;6.33;;
42478;SDS011;28110;47.080;9.476;2023-12-20T06:53:27;10.85;;;6.00;;
42478;SDS011;28110;47.080;9.476;2023-12-20T06:55:52;11.25;;;6.47;;
42478;SDS011;28110;47.080;9.476;2023-12-20T06:58:18;12.67;;;6.00;;
42478;SDS011;28110;47.080;9.476;2023-12-20T07:00:43;10.27;;;6.10;;
42478;SDS011;28110;47.080;9.476;2023-12-20T07:03:09;13.05;;;6.68;;
42478;SDS011;28110;47.080;9.476;2023-12-20T07:05:35;10.00;;;6.20;;
42478;SDS011;28110;47.080;9.476;2023-12-20T07:08:00;10.68;;;5.93;;
42478;SDS011;28110;47.080;9.476;2023-12-20T07:10:26;11.48;;;6.25;;
42478;SDS011;28110;47.080;9.476;2023-12-20T07:12:51;15.83;;;6.83;;
42478;SDS011;28110;47.080;9.476;2023-12-20T07:15:20;12.32;;;7.68;;
42478;SDS011;28110;47.080;9.476;2023-12-20T07:17:46;10.40;;;6.28;;
42478;SDS011;28110;47.080;9.476;2023-12-20T07:20:11;11.03;;;6.53;;
42478;SDS011;28110;47.080;9.476;2023-12-20T07:22:37;14.40;;;7.57;;
42478;SDS011;28110;47.080;9.476;2023-12-20T07:25:03;12.73;;;6.93;;
42478;SDS011;28110;47.080;9.476;2023-12-20T07:27:28;11.20;;;7.10;;
42478;SDS011;28110;47.080;9.476;2023-12-20T07:29:54;12.30;;;7.97;;
42478;SDS011;28110;47.080;9.476;2023-12-20T07:32:20;14.40;;;7.80;;
42478;SDS011;28110;47.080;9.476;2023-12-20T07:34:45;13.55;;;9.00;;
42478;SDS011;28110;47.080;9.476;2023-12-20T07:37:11;11.93;;;7.40;;
42478;SDS011;28110;47.080;9.476;2023-12-20T07:39:39;10.73;;;6.23;;
42478;SDS011;28110;47.080;9.476;2023-12-20T07:42:06;11.52;;;6.43;;
42478;SDS011;28110;47.080;9.476;2023-12-20T07:44:34;14.02;;;6.97;;
42478;SDS011;28110;47.080;9.476;2023-12-20T07:47:03;11.30;;;6.40;;
42478;SDS011;28110;47.080;9.476;2023-12-20T07:49:30;12.70;;;6.53;;
42478;SDS011;28110;47.080;9.476;2023-12-20T07:51:56;14.48;;;7.15;;
42478;SDS011;28110;47.080;9.476;2023-12-20T07:54:21;10.90;;;6.72;;
42478;SDS011;28110;47.080;9.476;2023-12-20T07:56:47;14.03;;;6.83;;
42478;SDS011;28110;47.080;9.476;2023-12-20T07:59:13;17.92;;;7.50;;
42478;SDS011;28110;47.080;9.476;2023-12-20T08:01:39;15.83;;;7.87;;
42478;SDS011;28110;47.080;9.476;2023-12-20T08:04:04;14.33;;;8.67;;
42478;SDS011;28110;47.080;9.476;2023-12-20T08:06:30;14.75;;;7.38;;
42478;SDS011;28110;47.080;9.476;2023-12-20T08:08:55;10.60;;;7.00;;
42478;SDS011;28110;47.080;9.476;2023-12-20T08:11:22;16.45;;;7.70;;
42478;SDS011;28110;47.080;9.476;2023-12-20T08:13:47;13.50;;;6.60;;
42478;SDS011;28110;47.080;9.476;2023-12-20T08:16:13;26.53;;;8.07;;
42478;SDS011;28110;47.080;9.476;2023-12-20T08:18:40;14.32;;;8.45;;
42478;SDS011;28110;47.080;9.476;2023-12-20T08:21:06;15.63;;;8.20;;
42478;SDS011;28110;47.080;9.476;2023-12-20T08:23:33;13.52;;;7.88;;
42478;SDS011;28110;47.080;9.476;2023-12-20T08:26:03;15.63;;;8.23;;
42478;SDS011;28110;47.080;9.476;2023-12-20T08:28:32;17.65;;;9.13;;
42478;SDS011;28110;47.080;9.476;2023-12-20T08:30:58;11.98;;;7.78;;
42478;SDS011;28110;47.080;9.476;2023-12-20T08:33:23;17.57;;;9.10;;
42478;SDS011;28110;47.080;9.476;2023-12-20T08:35:49;14.75;;;7.50;;
42478;SDS011;28110;47.080;9.476;2023-12-20T08:38:15;12.83;;;6.83;;
42478;SDS011;28110;47.080;9.476;2023-12-20T08:40:41;13.15;;;6.72;;
42478;SDS011;28110;47.080;9.476;2023-12-20T08:43:07;11.57;;;6.90;;
42478;SDS011;28110;47.080;9.476;2023-12-20T08:45:32;15.20;;;7.07;;
42478;SDS011;28110;47.080;9.476;2023-12-20T08:47:58;12.43;;;6.90;;
42478;SDS011;28110;47.080;9.476;2023-12-20T08:50:24;11.27;;;6.10;;
42478;SDS011;28110;47.080;9.476;2023-12-20T08:52:50;11.37;;;6.40;;
42478;SDS011;28110;47.080;9.476;2023-12-20T08:55:16;12.80;;;7.00;;
42478;SDS011;28110;47.080;9.476;2023-12-20T08:57:43;14.07;;;7.03;;
42478;SDS011;28110;47.080;9.476;2023-12-20T09:00:09;14.50;;;7.05;;
42478;SDS011;28110;47.080;9.476;2023-12-20T09:02:35;9.65;;;5.90;;
42478;SDS011;28110;47.080;9.476;2023-12-20T09:05:01;12.20;;;6.00;;
42478;SDS011;28110;47.080;9.476;2023-12-20T09:07:27;11.85;;;6.25;;
42478;SDS011;28110;47.080;9.476;2023-12-20T09:09:55;10.85;;;6.07;;
42478;SDS011;28110;47.080;9.476;2023-12-20T09:12:21;13.43;;;6.15;;
42478;SDS011;28110;47.080;9.476;2023-12-20T09:14:47;10.93;;;5.60;;
42478;SDS011;28110;47.080;9.476;2023-12-20T09:17:15;11.25;;;7.03;;
42478;SDS011;28110;47.080;9.476;2023-12-20T09:19:44;11.68;;;6.60;;
42478;SDS011;28110;47.080;9.476;2023-12-20T09:22:10;15.02;;;8.27;;
42478;SDS011;28110;47.080;9.476;2023-12-20T09:24:36;13.70;;;8.10;;
42478;SDS011;28110;47.080;9.476;2023-12-20T09:27:02;17.23;;;8.53;;
42478;SDS011;28110;47.080;9.476;2023-12-20T09:29:27;18.15;;;9.15;;
42478;SDS011;28110;47.080;9.476;2023-12-20T09:31:53;13.60;;;7.57;;
42478;SDS011;28110;47.080;9.476;2023-12-20T09:34:19;18.13;;;7.25;;
42478;SDS011;28110;47.080;9.476;2023-12-20T09:36:45;14.07;;;6.53;;
42478;SDS011;28110;47.080;9.476;2023-12-20T09:39:15;12.60;;;6.70;;
42478;SDS011;28110;47.080;9.476;2023-12-20T09:41:45;12.98;;;7.40;;
42478;SDS011;28110;47.080;9.476;2023-12-20T09:44:21;14.15;;;7.28;;
42478;SDS011;28110;47.080;9.476;2023-12-20T09:46:49;18.17;;;7.27;;
42478;SDS011;28110;47.080;9.476;2023-12-20T09:49:15;17.58;;;7.57;;
42478;SDS011;28110;47.080;9.476;2023-12-20T09:51:43;17.30;;;7.90;;
42478;SDS011;28110;47.080;9.476;2023-12-20T09:54:09;23.20;;;10.25;;
42478;SDS011;28110;47.080;9.476;2023-12-20T09:56:35;19.97;;;10.33;;
42478;SDS011;28110;47.080;9.476;2023-12-20T09:59:02;16.40;;;8.05;;
42478;SDS011;28110;47.080;9.476;2023-12-20T10:01:27;11.13;;;6.77;;
42478;SDS011;28110;47.080;9.476;2023-12-20T10:03:54;18.00;;;9.23;;
42478;SDS011;28110;47.080;9.476;2023-12-20T10:06:20;16.23;;;8.65;;
42478;SDS011;28110;47.080;9.476;2023-12-20T10:08:46;14.05;;;7.85;;
42478;SDS011;28110;47.080;9.476;2023-12-20T10:11:12;21.53;;;9.00;;
42478;SDS011;28110;47.080;9.476;2023-12-20T10:13:39;9.90;;;6.32;;
42478;SDS011;28110;47.080;9.476;2023-12-20T10:16:08;14.07;;;6.65;;
42478;SDS011;28110;47.080;9.476;2023-12-20T10:18:34;9.57;;;5.37;;
42478;SDS011;28110;47.080;9.476;2023-12-20T10:21:00;9.07;;;5.20;;
42478;SDS011;28110;47.080;9.476;2023-12-20T10:23:25;12.32;;;5.15;;
42478;SDS011;28110;47.080;9.476;2023-12-20T10:25:58;9.67;;;5.97;;
42478;SDS011;28110;47.080;9.476;2023-12-20T10:28:24;12.60;;;7.20;;
42478;SDS011;28110;47.080;9.476;2023-12-20T10:30:52;11.88;;;6.03;;
42478;SDS011;28110;47.080;9.476;2023-12-20T10:33:25;10.95;;;6.95;;
42478;SDS011;28110;47.080;9.476;2023-12-20T10:35:52;14.45;;;6.75;;
42478;SDS011;28110;47.080;9.476;2023-12-20T10:38:18;15.63;;;6.33;;
42478;SDS011;28110;47.080;9.476;2023-12-20T10:40:45;12.85;;;5.82;;
42478;SDS011;28110;47.080;9.476;2023-12-20T10:43:11;8.87;;;5.10;;
42478;SDS011;28110;47.080;9.476;2023-12-20T10:45:38;8.65;;;5.13;;
42478;SDS011;28110;47.080;9.476;2023-12-20T10:48:04;8.15;;;4.43;;
42478;SDS011;28110;47.080;9.476;2023-12-20T10:50:30;12.30;;;5.32;;
42478;SDS011;28110;47.080;9.476;2023-12-20T10:52:56;8.27;;;5.40;;
42478;SDS011;28110;47.080;9.476;2023-12-20T10:55:23;10.38;;;5.70;;
42478;SDS011;28110;47.080;9.476;2023-12-20T10:57:49;11.80;;;5.60;;
42478;SDS011;28110;47.080;9.476;2023-12-20T11:00:31;12.65;;;4.85;;
42478;SDS011;28110;47.080;9.476;2023-12-20T11:03:00;9.53;;;4.70;;
42478;SDS011;28110;47.080;9.476;2023-12-20T11:05:36;7.53;;;4.28;;
42478;SDS011;28110;47.080;9.476;2023-12-20T11:08:16;10.30;;;4.70;;
42478;SDS011;28110;47.080;9.476;2023-12-20T11:10:56;11.00;;;4.97;;
42478;SDS011;28110;47.080;9.476;2023-12-20T11:13:31;7.47;;;4.80;;
42478;SDS011;28110;47.080;9.476;2023-12-20T11:16:00;8.30;;;4.63;;
42478;SDS011;28110;47.080;9.476;2023-12-20T11:18:28;9.60;;;4.53;;
42478;SDS011;28110;47.080;9.476;2023-12-20T11:20:55;9.52;;;4.95;;
42478;SDS011;28110;47.080;9.476;2023-12-20T11:23:25;8.52;;;4.80;;
42478;SDS011;28110;47.080;9.476;2023-12-20T11:25:54;7.90;;;4.27;;
42478;SDS011;28110;47.080;9.476;2023-12-20T11:28:23;21.83;;;10.95;;
42478;SDS011;28110;47.080;9.476;2023-12-20T11:30:51;17.75;;;8.70;;
42478;SDS011;28110;47.080;9.476;2023-12-20T11:33:24;7.18;;;4.05;;
42478;SDS011;28110;47.080;9.476;2023-12-20T11:35:51;5.73;;;3.87;;
42478;SDS011;28110;47.080;9.476;2023-12-20T11:38:20;5.18;;;3.47;;
42478;SDS011;28110;47.080;9.476;2023-12-20T11:40:47;5.80;;;3.45;;
42478;SDS011;28110;47.080;9.476;2023-12-20T11:43:29;5.97;;;3.90;;
42478;SDS011;28110;47.080;9.476;2023-12-20T11:46:05;5.68;;;3.40;;
42478;SDS011;28110;47.080;9.476;2023-12-20T11:48:32;7.93;;;3.43;;
42478;SDS011;28110;47.080;9.476;2023-12-20T11:50:59;6.65;;;3.67;;
42478;SDS011;28110;47.080;9.476;2023-12-20T11:53:25;4.97;;;3.20;;
42478;SDS011;28110;47.080;9.476;2023-12-20T11:55:50;6.00;;;3.43;;
42478;SDS011;28110;47.080;9.476;2023-12-20T11:58:16;6.47;;;3.40;;
42478;SDS011;28110;47.080;9.476;2023-12-20T12:00:42;5.97;;;3.40;;
42478;SDS011;28110;47.080;9.476;2023-12-20T12:03:08;6.57;;;3.92;;
42478;SDS011;28110;47.080;9.476;2023-12-20T12:05:34;6.13;;;3.53;;
42478;SDS011;28110;47.080;9.476;2023-12-20T12:08:00;5.70;;;3.15;;
42478;SDS011;28110;47.080;9.476;2023-12-20T12:10:26;5.60;;;3.67;;
42478;SDS011;28110;47.080;9.476;2023-12-20T12:12:52;7.87;;;4.20;;
42478;SDS011;28110;47.080;9.476;2023-12-20T12:15:17;8.15;;;4.13;;
42478;SDS011;28110;47.080;9.476;2023-12-20T12:17:43;5.90;;;3.90;;
42478;SDS011;28110;47.080;9.476;2023-12-20T12:20:09;9.10;;;4.07;;
42478;SDS011;28110;47.080;9.476;2023-12-20T12:22:35;5.90;;;3.70;;
42478;SDS011;28110;47.080;9.476;2023-12-20T12:25:11;8.20;;;4.00;;
42478;SDS011;28110;47.080;9.476;2023-12-20T12:27:41;7.38;;;4.03;;
42478;SDS011;28110;47.080;9.476;2023-12-20T12:30:08;6.55;;;3.95;;
42478;SDS011;28110;47.080;9.476;2023-12-20T12:32:34;9.73;;;5.57;;
42478;SDS011;28110;47.080;9.476;2023-12-20T12:35:02;8.80;;;5.50;;
42478;SDS011;28110;47.080;9.476;2023-12-20T12:37:31;10.73;;;5.13;;
42478;SDS011;28110;47.080;9.476;2023-12-20T12:39:59;7.00;;;4.63;;
42478;SDS011;28110;47.080;9.476;2023-12-20T12:42:24;12.23;;;5.40;;
42478;SDS011;28110;47.080;9.476;2023-12-20T12:44:53;9.40;;;5.37;;
42478;SDS011;28110;47.080;9.476;2023-12-20T12:47:20;6.78;;;4.47;;
42478;SDS011;28110;47.080;9.476;2023-12-20T12:49:45;8.25;;;4.30;;
42478;SDS011;28110;47.080;9.476;2023-12-20T12:52:11;6.67;;;3.83;;
42478;SDS011;28110;47.080;9.476;2023-12-20T12:54:36;7.70;;;4.60;;
42478;SDS011;28110;47.080;9.476;2023-12-20T12:57:02;7.50;;;3.97;;
42478;SDS011;28110;47.080;9.476;2023-12-20T12:59:28;8.07;;;4.15;;
42478;SDS011;28110;47.080;9.476;2023-12-20T13:01:54;6.27;;;4.10;;
42478;SDS011;28110;47.080;9.476;2023-12-20T13:04:19;5.50;;;3.70;;
42478;SDS011;28110;47.080;9.476;2023-12-20T13:06:45;5.50;;;3.75;;
42478;SDS011;28110;47.080;9.476;2023-12-20T13:09:11;7.45;;;4.43;;
42478;SDS011;28110;47.080;9.476;2023-12-20T13:11:37;7.45;;;4.88;;
42478;SDS011;28110;47.080;9.476;2023-12-20T13:14:03;7.27;;;4.50;;
42478;SDS011;28110;47.080;9.476;2023-12-20T13:16:28;8.18;;;4.85;;
42478;SDS011;28110;47.080;9.476;2023-12-20T13:18:54;7.07;;;4.30;;
42478;SDS011;28110;47.080;9.476;2023-12-20T13:21:21;8.70;;;4.72;;
42478;SDS011;28110;47.080;9.476;2023-12-20T13:23:46;6.53;;;4.70;;
42478;SDS011;28110;47.080;9.476;2023-12-20T13:26:12;5.15;;;3.47;;
42478;SDS011;28110;47.080;9.476;2023-12-20T13:28:37;10.53;;;4.70;;
42478;SDS011;28110;47.080;9.476;2023-12-20T13:31:03;7.03;;;3.90;;
42478;SDS011;28110;47.080;9.476;2023-12-20T13:33:28;8.45;;;5.20;;
42478;SDS011;28110;47.080;9.476;2023-12-20T13:35:54;8.70;;;4.87;;
42478;SDS011;28110;47.080;9.476;2023-12-20T13:38:21;8.00;;;5.10;;
42478;SDS011;28110;47.080;9.476;2023-12-20T13:40:46;7.47;;;5.17;;
42478;SDS011;28110;47.080;9.476;2023-12-20T13:43:12;7.95;;;5.43;;
42478;SDS011;28110;47.080;9.476;2023-12-20T13:45:38;8.85;;;5.72;;
42478;SDS011;28110;47.080;9.476;2023-12-20T13:48:04;10.68;;;6.00;;
42478;SDS011;28110;47.080;9.476;2023-12-20T13:50:30;8.10;;;5.13;;
42478;SDS011;28110;47.080;9.476;2023-12-20T13:52:55;8.50;;;5.40;;
42478;SDS011;28110;47.080;9.476;2023-12-20T13:55:21;11.43;;;5.50;;
42478;SDS011;28110;47.080;9.476;2023-12-20T13:57:50;8.43;;;5.47;;
42478;SDS011;28110;47.080;9.476;2023-12-20T14:00:16;9.80;;;6.47;;
42478;SDS011;28110;47.080;9.476;2023-12-20T14:02:41;9.48;;;6.10;;
42478;SDS011;28110;47.080;9.476;2023-12-20T14:05:08;10.63;;;6.15;;
42478;SDS011;28110;47.080;9.476;2023-12-20T14:07:34;8.57;;;5.05;;
42478;SDS011;28110;47.080;9.476;2023-12-20T14:09:59;9.43;;;5.57;;
42478;SDS011;28110;47.080;9.476;2023-12-20T14:12:25;10.50;;;5.60;;
42478;SDS011;28110;47.080;9.476;2023-12-20T14:14:50;9.57;;;5.80;;
42478;SDS011;28110;47.080;9.476;2023-12-20T14:17:16;8.07;;;5.47;;
42478;SDS011;28110;47.080;9.476;2023-12-20T14:19:43;7.80;;;5.25;;
42478;SDS011;28110;47.080;9.476;2023-12-20T14:22:08;8.25;;;5.50;;
42478;SDS011;28110;47.080;9.476;2023-12-20T14:24:34;7.67;;;5.13;;
42478;SDS011;28110;47.080;9.476;2023-12-20T14:27:01;10.20;;;5.90;;
42478;SDS011;28110;47.080;9.476;2023-12-20T14:29:26;8.53;;;5.13;;
42478;SDS011;28110;47.080;9.476;2023-12-20T14:31:52;7.63;;;4.93;;
42478;SDS011;28110;47.080;9.476;2023-12-20T14:34:18;7.85;;;4.35;;